Time;durP1;ratioP1;P1;durP2;ratioP2;P2;SDS_P1;SDS_P2;PMS_P1;PMS_P2;Temp;Humidity;BMP_temperature;BMP_pressure;BME280_temperature;BME280_humidity;BME280_pressure;Samples;Min_cycle;Max_cycle;Signal;HPM_P1;HPM_P2
2022/05/17 00:00:57;;;;;;;31.38;12.15;;;14.20;99.90;;;;;;5098289;28;20044;-67
2022/05/17 00:03:22;;;;;;;35.53;12.52;;;14.20;99.90;;;;;;5098243;28;20048;-66
2022/05/17 00:05:48;;;;;;;29.85;12.63;;;14.30;99.90;;;;;;5079803;28;20077;-67
2022/05/17 00:08:15;;;;;;;29.38;11.75;;;14.30;99.90;;;;;;5098066;28;20048;-66
2022/05/17 00:10:41;;;;;;;32.70;13.00;;;14.30;99.90;;;;;;5097163;28;20044;-66
2022/05/17 00:13:07;;;;;;;29.75;12.88;;;14.20;99.90;;;;;;5098494;28;20169;-66
2022/05/17 00:15:34;;;;;;;30.67;13.48;;;14.20;99.90;;;;;;5097974;28;20378;-66
2022/05/17 00:18:01;;;;;;;27.80;12.50;;;14.20;99.90;;;;;;5098061;28;20052;-66
2022/05/17 00:20:27;;;;;;;28.63;12.63;;;14.20;99.90;;;;;;5098058;28;20093;-66
2022/05/17 00:22:53;;;;;;;29.10;11.38;;;14.10;99.90;;;;;;5098118;28;20062;-66
2022/05/17 00:25:20;;;;;;;22.80;12.63;;;14.20;99.90;;;;;;5095693;28;20040;-65
2022/05/17 00:27:46;;;;;;;30.98;12.15;;;14.10;99.90;;;;;;5097705;28;20044;-66
2022/05/17 00:30:13;;;;;;;23.20;11.70;;;14.20;99.90;;;;;;5097867;28;20036;-66
2022/05/17 00:32:38;;;;;;;31.58;13.50;;;14.20;99.90;;;;;;5096963;28;20472;-67
2022/05/17 00:35:04;;;;;;;28.83;13.05;;;14.10;99.90;;;;;;5097565;28;20044;-66
2022/05/17 00:37:30;;;;;;;33.65;13.82;;;14.00;99.90;;;;;;5097538;28;20123;-66
2022/05/17 00:39:56;;;;;;;26.33;13.50;;;14.00;99.90;;;;;;5096342;28;20036;-66
2022/05/17 00:42:21;;;;;;;29.58;13.57;;;14.00;99.90;;;;;;5079739;28;20052;-66
2022/05/17 00:44:47;;;;;;;32.42;14.25;;;14.00;99.90;;;;;;5079966;28;20067;-67
2022/05/17 00:47:30;;;;;;;32.40;15.27;;;13.90;99.90;;;;;;5096452;28;20044;-66
2022/05/17 00:50:07;;;;;;;29.45;14.05;;;13.90;99.90;;;;;;5097310;28;20096;-66
2022/05/17 00:52:40;;;;;;;33.28;14.15;;;13.90;99.90;;;;;;5097376;28;20097;-66
2022/05/17 00:55:19;;;;;;;23.65;12.68;;;13.90;99.90;;;;;;5096824;28;20510;-66
2022/05/17 00:57:51;;;;;;;29.15;13.60;;;13.90;99.90;;;;;;5096948;28;20097;-66
2022/05/17 01:00:19;;;;;;;31.92;12.88;;;14.00;99.90;;;;;;5096340;28;20119;-66
2022/05/17 01:02:49;;;;;;;29.83;13.95;;;14.00;99.90;;;;;;5097248;28;20187;-66
2022/05/17 01:05:16;;;;;;;25.83;12.63;;;14.00;99.90;;;;;;5097209;28;20416;-66
2022/05/17 01:07:43;;;;;;;29.42;12.52;;;14.10;99.90;;;;;;5078779;28;20359;-66
2022/05/17 01:10:10;;;;;;;30.88;13.50;;;14.10;99.90;;;;;;5096586;28;20123;-66
2022/05/17 01:12:38;;;;;;;26.58;13.20;;;14.10;99.90;;;;;;5096831;28;20097;-66
2022/05/17 01:15:06;;;;;;;33.10;13.13;;;14.10;99.90;;;;;;5096175;28;20040;-66
2022/05/17 01:17:35;;;;;;;30.20;14.23;;;14.10;99.90;;;;;;5095990;28;20063;-66
2022/05/17 01:20:04;;;;;;;32.95;13.05;;;14.10;99.90;;;;;;5096597;28;20097;-66
2022/05/17 01:22:30;;;;;;;34.15;14.20;;;14.00;99.90;;;;;;5077935;28;20064;-66
2022/05/17 01:24:56;;;;;;;31.58;12.63;;;14.00;99.90;;;;;;5076213;28;20044;-66
2022/05/17 01:27:28;;;;;;;27.48;13.85;;;13.90;99.90;;;;;;5076148;28;20127;-66
2022/05/17 01:29:54;;;;;;;29.70;13.00;;;14.00;99.90;;;;;;5076403;28;20041;-66
2022/05/17 01:32:21;;;;;;;39.15;13.27;;;13.90;99.90;;;;;;5076395;28;20054;-66
2022/05/17 01:34:47;;;;;;;24.65;12.40;;;13.90;99.90;;;;;;5076268;28;20052;-66
2022/05/17 01:37:14;;;;;;;34.08;12.30;;;13.90;99.90;;;;;;5095739;28;20054;-66
2022/05/17 01:39:39;;;;;;;25.42;12.07;;;13.90;99.90;;;;;;5096354;28;20048;-66
2022/05/17 01:42:06;;;;;;;32.35;14.27;;;13.90;99.90;;;;;;5096419;28;20052;-66
2022/05/17 01:44:32;;;;;;;35.53;13.68;;;13.90;99.90;;;;;;5096346;28;20050;-66
2022/05/17 01:46:57;;;;;;;36.45;13.38;;;13.90;99.90;;;;;;5096156;28;20048;-66
2022/05/17 01:49:23;;;;;;;31.98;14.27;;;13.80;99.90;;;;;;5078298;28;20052;-66
2022/05/17 01:51:48;;;;;;;27.15;14.15;;;13.90;99.90;;;;;;5093748;28;20055;-65
2022/05/17 01:54:14;;;;;;;30.77;14.05;;;13.80;99.90;;;;;;5096316;28;20044;-66
2022/05/17 01:56:40;;;;;;;26.42;14.02;;;13.80;99.90;;;;;;5095973;28;20056;-66
2022/05/17 01:59:05;;;;;;;24.73;11.93;;;13.80;99.90;;;;;;5095906;28;20044;-66
2022/05/17 02:01:31;;;;;;;31.25;13.40;;;13.80;99.90;;;;;;5095954;28;20040;-66
2022/05/17 02:03:56;;;;;;;29.02;12.00;;;13.70;99.90;;;;;;5095840;28;20055;-66
2022/05/17 02:06:23;;;;;;;32.17;14.15;;;13.70;99.90;;;;;;5094831;28;20067;-66
2022/05/17 02:08:49;;;;;;;30.63;13.10;;;13.70;99.90;;;;;;5095716;28;20113;-66
2022/05/17 02:11:15;;;;;;;37.60;14.23;;;13.60;99.90;;;;;;5095727;28;20094;-66
2022/05/17 02:13:41;;;;;;;28.60;13.07;;;13.60;99.90;;;;;;5096060;28;20113;-66
2022/05/17 02:16:08;;;;;;;30.75;13.15;;;13.60;99.90;;;;;;5095682;28;20117;-66
2022/05/17 02:18:33;;;;;;;29.20;13.45;;;13.60;99.90;;;;;;5070318;28;20044;-66
2022/05/17 02:20:59;;;;;;;30.00;12.52;;;13.60;99.90;;;;;;5093743;28;20058;-66
2022/05/17 02:23:25;;;;;;;24.65;12.65;;;13.50;99.90;;;;;;5095482;28;20048;-66
2022/05/17 02:25:50;;;;;;;30.50;13.65;;;13.50;99.90;;;;;;5095631;28;20388;-66
2022/05/17 02:28:16;;;;;;;23.52;12.20;;;13.50;99.90;;;;;;5095527;28;20047;-66
2022/05/17 02:30:43;;;;;;;30.80;13.23;;;13.50;99.90;;;;;;5095636;28;20040;-66
2022/05/17 02:33:09;;;;;;;35.35;13.18;;;13.40;99.90;;;;;;5094792;28;20047;-66
2022/05/17 02:35:35;;;;;;;30.30;14.38;;;13.40;99.90;;;;;;5095082;28;20040;-66
2022/05/17 02:38:01;;;;;;;33.85;13.88;;;13.40;99.90;;;;;;5095277;28;20047;-66
2022/05/17 02:40:27;;;;;;;28.10;14.45;;;13.40;99.90;;;;;;5094709;28;20044;-66
2022/05/17 02:42:52;;;;;;;39.67;15.05;;;13.30;99.90;;;;;;5095141;28;20135;-66
2022/05/17 02:45:18;;;;;;;24.08;13.00;;;13.30;99.90;;;;;;5095138;28;20047;-66
2022/05/17 02:47:44;;;;;;;27.80;13.75;;;13.30;99.90;;;;;;5095338;28;20040;-66
2022/05/17 02:50:10;;;;;;;31.40;13.50;;;13.30;99.90;;;;;;5094965;28;20044;-66
2022/05/17 02:52:37;;;;;;;28.02;13.20;;;13.30;99.90;;;;;;5095153;28;20048;-66
2022/05/17 02:55:03;;;;;;;30.35;14.30;;;13.20;99.90;;;;;;5093805;28;20476;-66
2022/05/17 02:57:30;;;;;;;30.60;14.38;;;13.20;99.90;;;;;;5095482;28;20270;-66
2022/05/17 02:59:55;;;;;;;26.70;13.18;;;13.20;99.90;;;;;;5095157;28;20044;-66
2022/05/17 03:02:21;;;;;;;26.90;13.07;;;13.20;99.90;;;;;;5077067;28;20059;-66
2022/05/17 03:04:47;;;;;;;26.08;11.38;;;13.20;99.90;;;;;;5094526;28;20043;-66
2022/05/17 03:07:12;;;;;;;26.08;12.50;;;13.10;99.90;;;;;;5094581;28;20087;-66
2022/05/17 03:09:38;;;;;;;31.45;12.98;;;13.10;99.90;;;;;;5094078;28;20133;-66
2022/05/17 03:12:05;;;;;;;26.27;12.35;;;13.10;99.90;;;;;;5095119;28;20048;-66
2022/05/17 03:14:31;;;;;;;32.65;12.50;;;13.20;99.90;;;;;;5094823;28;20048;-66
2022/05/17 03:16:56;;;;;;;23.33;12.63;;;13.10;99.90;;;;;;5094889;28;20040;-66
2022/05/17 03:19:22;;;;;;;28.90;13.13;;;13.20;99.90;;;;;;5094521;28;20040;-67
2022/05/17 03:21:48;;;;;;;20.80;11.93;;;13.20;99.90;;;;;;5076769;28;20393;-65
2022/05/17 03:24:14;;;;;;;30.73;11.68;;;13.20;99.90;;;;;;5094015;28;20032;-66
2022/05/17 03:26:40;;;;;;;29.33;11.68;;;13.20;99.90;;;;;;5094705;28;20071;-66
2022/05/17 03:29:06;;;;;;;28.42;12.13;;;13.20;99.90;;;;;;5094817;28;20037;-66
2022/05/17 03:31:34;;;;;;;26.85;10.82;;;13.20;99.90;;;;;;5094682;28;20100;-66
2022/05/17 03:33:59;;;;;;;25.13;11.63;;;13.30;99.90;;;;;;5094511;28;20048;-66
2022/05/17 03:36:25;;;;;;;24.52;11.38;;;13.20;99.90;;;;;;5077221;28;20048;-66
2022/05/17 03:38:50;;;;;;;25.75;10.82;;;13.20;99.90;;;;;;5094041;28;20051;-67
2022/05/17 03:41:16;;;;;;;27.27;12.48;;;13.20;99.90;;;;;;5094615;28;20089;-66
2022/05/17 03:43:42;;;;;;;22.95;11.27;;;13.30;99.90;;;;;;5076787;28;20055;-66
2022/05/17 03:46:08;;;;;;;36.42;12.48;;;13.20;99.90;;;;;;5094719;28;20045;-66
2022/05/17 03:48:34;;;;;;;27.00;11.55;;;13.30;99.90;;;;;;5094593;28;20117;-67
2022/05/17 03:51:00;;;;;;;24.02;10.95;;;13.20;99.90;;;;;;5077092;28;20091;-66
2022/05/17 03:53:26;;;;;;;29.13;11.52;;;13.20;99.90;;;;;;5093562;28;20032;-66
2022/05/17 03:55:51;;;;;;;28.48;11.65;;;13.20;99.90;;;;;;5076698;28;20465;-66
2022/05/17 03:58:17;;;;;;;30.95;11.07;;;13.20;99.90;;;;;;5094557;28;20111;-66
2022/05/17 04:00:43;;;;;;;29.38;11.30;;;13.20;99.90;;;;;;5094598;28;20097;-66
2022/05/17 04:03:08;;;;;;;24.75;11.98;;;13.30;99.90;;;;;;5094607;28;20073;-67
2022/05/17 04:05:34;;;;;;;22.73;10.20;;;13.30;99.90;;;;;;5094034;28;20102;-66
2022/05/17 04:08:00;;;;;;;28.88;10.32;;;13.20;99.90;;;;;;5093453;28;20473;-67
2022/05/17 04:10:26;;;;;;;31.05;11.68;;;13.30;99.90;;;;;;5076319;28;20083;-66
2022/05/17 04:12:51;;;;;;;29.38;11.73;;;13.30;99.90;;;;;;5094542;28;20055;-66
2022/05/17 04:15:20;;;;;;;24.38;10.35;;;13.40;99.90;;;;;;5098305;28;20366;-65
2022/05/17 04:17:46;;;;;;;20.58;10.98;;;13.40;99.90;;;;;;5097613;28;20122;-66
2022/05/17 04:20:13;;;;;;;25.00;10.73;;;13.40;99.90;;;;;;5097736;28;20083;-66
2022/05/17 04:22:46;;;;;;;29.75;12.18;;;13.50;99.90;;;;;;5097086;28;20116;-67
2022/05/17 04:25:16;;;;;;;33.72;11.48;;;13.50;99.90;;;;;;5097463;28;20040;-66
2022/05/17 04:27:43;;;;;;;25.77;10.43;;;13.50;99.90;;;;;;5096373;28;20048;-66
2022/05/17 04:30:09;;;;;;;28.85;10.88;;;13.50;99.90;;;;;;5097766;28;20461;-66
2022/05/17 04:32:34;;;;;;;30.40;10.90;;;13.50;99.90;;;;;;5097562;28;20055;-66
2022/05/17 04:35:00;;;;;;;28.65;10.80;;;13.50;99.90;;;;;;5097611;28;20442;-67
2022/05/17 04:37:27;;;;;;;26.15;10.60;;;13.60;99.90;;;;;;5097240;28;20056;-66
2022/05/17 04:39:52;;;;;;;27.17;10.18;;;13.60;99.90;;;;;;5080150;28;20148;-66
2022/05/17 04:42:18;;;;;;;32.80;10.20;;;13.70;99.90;;;;;;5096731;28;20094;-66
2022/05/17 04:44:44;;;;;;;32.63;10.65;;;13.70;99.90;;;;;;5096985;28;20052;-66
2022/05/17 04:47:09;;;;;;;26.98;10.82;;;13.70;99.90;;;;;;5096754;28;20055;-65
2022/05/17 04:49:36;;;;;;;26.85;10.15;;;13.80;99.90;;;;;;5097333;28;20047;-66
2022/05/17 04:52:02;;;;;;;24.75;10.25;;;13.80;99.90;;;;;;5097510;28;20047;-66
2022/05/17 04:54:28;;;;;;;28.65;10.57;;;13.80;99.90;;;;;;5079469;28;20339;-66
2022/05/17 04:56:54;;;;;;;28.65;9.35;;;13.90;99.90;;;;;;5083467;28;20139;-66
2022/05/17 04:59:20;;;;;;;26.17;10.50;;;13.90;99.90;;;;;;5076781;28;20052;-66
2022/05/17 05:01:46;;;;;;;25.75;9.45;;;14.00;99.90;;;;;;5084393;28;20520;-66
2022/05/17 05:04:12;;;;;;;25.35;9.50;;;14.00;99.90;;;;;;5088431;28;20394;-66
2022/05/17 05:06:37;;;;;;;28.65;11.35;;;14.10;99.90;;;;;;5096008;28;20098;-66
2022/05/17 05:09:03;;;;;;;25.92;8.90;;;14.20;99.90;;;;;;5097011;28;20047;-66
2022/05/17 05:11:29;;;;;;;31.13;10.60;;;14.30;99.90;;;;;;5097146;28;20047;-66
2022/05/17 05:13:54;;;;;;;32.00;10.60;;;14.30;99.90;;;;;;5096781;28;20464;-66
2022/05/17 05:16:20;;;;;;;25.08;11.02;;;14.40;99.90;;;;;;5096170;28;20051;-66
2022/05/17 05:18:46;;;;;;;28.98;9.45;;;14.40;99.90;;;;;;5070244;28;20079;-66
2022/05/17 05:21:14;;;;;;;27.33;8.77;;;14.50;99.90;;;;;;5096137;28;20098;-67
2022/05/17 05:23:41;;;;;;;25.55;9.20;;;14.60;99.90;;;;;;5095873;28;20150;-68
2022/05/17 05:26:08;;;;;;;23.75;8.18;;;14.60;99.90;;;;;;5096619;28;20048;-68
2022/05/17 05:28:35;;;;;;;19.85;8.77;;;14.70;99.90;;;;;;5096577;28;20043;-66
2022/05/17 05:31:03;;;;;;;28.08;9.48;;;14.70;99.90;;;;;;5096210;28;20054;-65
2022/05/17 05:33:29;;;;;;;22.50;8.70;;;14.80;99.90;;;;;;5096483;28;20044;-65
2022/05/17 05:35:55;;;;;;;27.83;8.48;;;14.90;99.90;;;;;;5094099;28;20052;-66
2022/05/17 05:38:20;;;;;;;31.85;9.85;;;14.90;99.90;;;;;;5075823;28;20492;-65
2022/05/17 05:40:46;;;;;;;25.73;8.93;;;14.80;99.90;;;;;;5075949;28;20044;-66
2022/05/17 05:43:12;;;;;;;20.30;7.95;;;14.90;99.90;;;;;;5076152;28;20047;-68
2022/05/17 05:45:38;;;;;;;28.17;8.23;;;14.90;99.90;;;;;;5083325;28;20055;-67
2022/05/17 05:48:04;;;;;;;32.63;10.02;;;14.90;99.90;;;;;;5081814;28;20040;-66
2022/05/17 05:50:30;;;;;;;24.98;9.38;;;14.90;99.90;;;;;;5096240;28;20055;-67
2022/05/17 05:53:05;;;;;;;31.60;8.90;;;14.90;99.90;;;;;;5096055;28;20048;-66
2022/05/17 05:55:31;;;;;;;30.42;9.07;;;14.90;99.90;;;;;;5095951;28;20075;-66
2022/05/17 05:57:57;;;;;;;25.52;8.85;;;14.90;99.90;;;;;;5095464;28;20040;-67
2022/05/17 06:00:23;;;;;;;25.15;9.25;;;15.00;99.90;;;;;;5095811;28;20062;-67
2022/05/17 06:02:49;;;;;;;22.45;8.70;;;15.00;99.90;;;;;;5095322;28;20040;-67
2022/05/17 06:05:16;;;;;;;25.15;8.15;;;15.00;99.90;;;;;;5078376;28;20394;-67
2022/05/17 06:07:42;;;;;;;24.35;7.80;;;15.10;99.90;;;;;;5095469;28;20056;-67
2022/05/17 06:10:08;;;;;;;28.67;9.65;;;15.10;99.90;;;;;;5096011;28;20036;-66
2022/05/17 06:12:34;;;;;;;29.55;8.15;;;15.10;99.90;;;;;;5095266;28;20043;-67
2022/05/17 06:15:00;;;;;;;23.15;9.30;;;15.20;99.90;;;;;;5095594;28;20371;-66
2022/05/17 06:17:27;;;;;;;21.80;8.18;;;15.20;99.90;;;;;;5094749;28;20044;-67
2022/05/17 06:19:57;;;;;;;21.35;8.15;;;15.30;99.90;;;;;;5095647;28;20119;-67
2022/05/17 06:22:24;;;;;;;19.77;8.10;;;15.30;99.90;;;;;;5095550;28;20048;-67
2022/05/17 06:24:50;;;;;;;26.38;8.75;;;15.40;99.90;;;;;;5095581;28;20450;-67
2022/05/17 06:27:16;;;;;;;23.83;7.80;;;15.50;99.90;;;;;;5077274;28;20100;-67
2022/05/17 06:29:41;;;;;;;24.25;8.75;;;15.50;99.90;;;;;;5094655;28;20381;-66
2022/05/17 06:32:12;;;;;;;24.58;8.18;;;15.50;99.90;;;;;;5075240;28;20462;-67
2022/05/17 06:34:42;;;;;;;22.08;7.82;;;15.60;99.90;;;;;;5075071;28;20052;-67
2022/05/17 06:37:08;;;;;;;16.25;7.38;;;15.70;99.90;;;;;;5057277;28;20052;-67
2022/05/17 06:39:35;;;;;;;23.08;7.38;;;15.70;99.90;;;;;;5057458;28;20442;-67
2022/05/17 06:42:01;;;;;;;24.38;8.13;;;15.70;99.90;;;;;;5075010;28;20048;-67
2022/05/17 06:44:27;;;;;;;26.25;6.97;;;15.80;99.90;;;;;;5057197;28;20142;-67
2022/05/17 06:46:54;;;;;;;20.90;8.63;;;15.80;99.90;;;;;;5094721;28;20100;-67
2022/05/17 06:49:21;;;;;;;24.50;7.35;;;15.90;99.90;;;;;;5095310;28;20047;-67
2022/05/17 06:51:47;;;;;;;21.63;7.22;;;16.00;99.90;;;;;;5095087;28;20177;-67
2022/05/17 06:54:13;;;;;;;25.95;7.60;;;16.00;99.90;;;;;;5095169;28;20119;-66
2022/05/17 06:56:38;;;;;;;25.30;8.38;;;16.00;99.90;;;;;;5094707;28;20048;-67
2022/05/17 06:59:04;;;;;;;24.10;7.57;;;16.10;99.90;;;;;;5095077;28;20118;-66
2022/05/17 07:01:30;;;;;;;21.90;7.38;;;16.20;99.90;;;;;;5094297;28;20415;-67
2022/05/17 07:03:56;;;;;;;22.58;8.30;;;16.30;99.90;;;;;;5094906;28;20086;-67
2022/05/17 07:06:21;;;;;;;23.20;7.55;;;16.40;99.90;;;;;;5094788;28;20583;-67
2022/05/17 07:08:47;;;;;;;14.32;7.25;;;16.40;99.90;;;;;;5094761;28;20048;-67
2022/05/17 07:13:57;;;;;;;20.63;7.50;;;16.40;99.90;;;;;;5093995;28;20051;-67
2022/05/17 07:16:24;;;;;;;24.38;7.25;;;16.50;99.90;;;;;;5076777;28;20113;-67
2022/05/17 07:18:50;;;;;;;27.95;7.68;;;16.60;99.90;;;;;;5094974;28;20084;-67
2022/05/17 07:21:15;;;;;;;19.38;6.57;;;16.80;99.90;;;;;;5060647;28;20086;-67
2022/05/17 07:23:42;;;;;;;19.00;6.93;;;16.80;99.90;;;;;;5094698;28;20036;-67
2022/05/17 07:26:12;;;;;;;22.88;7.35;;;16.80;99.90;;;;;;5095171;28;20126;-67
2022/05/17 07:28:43;;;;;;;23.23;8.23;;;17.00;99.90;;;;;;5094751;28;20113;-67
2022/05/17 07:31:09;;;;;;;23.42;7.55;;;16.90;99.90;;;;;;5074847;28;20049;-67
2022/05/17 07:33:35;;;;;;;24.42;7.57;;;17.00;99.90;;;;;;5074368;28;20056;-67
2022/05/17 07:36:02;;;;;;;20.08;7.15;;;17.00;99.90;;;;;;5056517;28;20041;-67
2022/05/17 07:38:28;;;;;;;23.23;8.20;;;17.10;99.90;;;;;;5074181;28;20565;-67
2022/05/17 07:40:53;;;;;;;20.60;6.97;;;17.10;99.90;;;;;;5074450;28;20135;-67
2022/05/17 07:43:20;;;;;;;22.13;6.63;;;17.10;99.90;;;;;;5087113;28;20135;-67
2022/05/17 07:45:49;;;;;;;18.52;7.25;;;17.10;99.90;;;;;;5077097;28;20044;-67
2022/05/17 07:48:16;;;;;;;21.73;7.47;;;17.20;99.90;;;;;;5095401;28;20411;-67
2022/05/17 07:50:42;;;;;;;22.55;7.15;;;17.20;99.90;;;;;;5098338;28;20040;-67
2022/05/17 07:53:10;;;;;;;19.40;7.05;;;17.20;99.90;;;;;;5098564;28;20056;-67
2022/05/17 07:55:37;;;;;;;21.60;7.38;;;17.30;99.90;;;;;;5098495;28;20059;-68
2022/05/17 07:58:04;;;;;;;19.85;6.30;;;17.30;99.90;;;;;;5097560;28;20452;-67
2022/05/17 08:00:30;;;;;;;17.52;6.45;;;17.40;99.90;;;;;;5098411;28;20044;-67
2022/05/17 08:02:58;;;;;;;14.77;6.47;;;17.60;99.90;;;;;;5080680;28;20056;-67
2022/05/17 08:05:25;;;;;;;22.10;6.75;;;17.70;99.90;;;;;;5097933;28;20432;-68
2022/05/17 08:07:51;;;;;;;17.27;7.35;;;17.80;99.90;;;;;;5094881;28;20067;-67
2022/05/17 08:10:17;;;;;;;15.57;6.47;;;17.80;99.90;;;;;;5080614;28;20117;-67
2022/05/17 08:12:43;;;;;;;17.98;5.80;;;17.80;99.90;;;;;;5093169;28;20458;-68
2022/05/17 08:15:09;;;;;;;19.65;6.43;;;17.90;99.90;;;;;;5098014;28;20032;-68
2022/05/17 08:17:35;;;;;;;16.60;5.60;;;17.90;99.90;;;;;;5097974;28;20036;-68
2022/05/17 08:20:01;;;;;;;28.02;7.30;;;18.00;99.90;;;;;;5097849;28;20042;-68
2022/05/17 08:22:27;;;;;;;24.50;7.57;;;18.10;99.90;;;;;;5098150;28;20082;-67
2022/05/17 08:27:36;;;;;;;16.88;5.50;;;18.20;99.90;;;;;;5094198;28;20056;-68
2022/05/17 08:30:12;;;;;;;15.02;6.00;;;18.30;99.90;;;;;;5097119;28;20121;-68
2022/05/17 08:35:43;;;;;;;18.13;5.63;;;18.40;99.90;;;;;;5097997;28;20052;-67
2022/05/17 08:38:11;;;;;;;19.15;5.93;;;18.50;99.90;;;;;;5080021;28;20059;-68
2022/05/17 08:40:47;;;;;;;15.38;5.75;;;18.60;99.90;;;;;;5097823;28;20032;-67
2022/05/17 08:43:21;;;;;;;17.00;5.38;;;18.70;99.90;;;;;;5081696;28;20040;-68
2022/05/17 08:46:23;;;;;;;15.07;6.20;;;18.80;99.90;;;;;;5097367;28;20048;-68
2022/05/17 08:48:52;;;;;;;17.70;5.30;;;18.90;99.90;;;;;;5097427;28;20058;-67
2022/05/17 08:51:26;;;;;;;16.23;5.28;;;18.90;99.90;;;;;;5097470;28;20051;-68
2022/05/17 08:53:52;;;;;;;16.52;5.68;;;19.00;99.90;;;;;;5096379;28;20083;-68
2022/05/17 08:56:18;;;;;;;12.38;4.50;;;19.10;99.90;;;;;;5079435;28;20048;-68
2022/05/17 08:58:50;;;;;;;17.48;4.90;;;19.20;99.90;;;;;;5093557;28;20051;-68
2022/05/17 09:01:28;;;;;;;15.75;4.32;;;19.20;99.90;;;;;;5079683;28;20100;-68
2022/05/17 09:04:03;;;;;;;15.65;4.18;;;19.20;99.90;;;;;;5079156;28;20350;-68
2022/05/17 09:06:34;;;;;;;11.32;4.65;;;19.20;99.90;;;;;;5097041;28;20056;-68
2022/05/17 09:09:20;;;;;;;16.15;4.80;;;19.30;99.90;;;;;;5096513;28;20454;-68
2022/05/17 09:11:54;;;;;;;16.80;4.82;;;19.30;99.90;;;;;;5044766;28;20060;-68
2022/05/17 09:14:24;;;;;;;17.02;4.45;;;19.30;99.90;;;;;;5096759;28;20047;-68
2022/05/17 09:17:05;;;;;;;12.95;4.25;;;19.50;99.90;;;;;;5096591;28;20490;-68
2022/05/17 09:19:31;;;;;;;15.73;4.13;;;19.60;99.90;;;;;;5096830;28;20085;-68
2022/05/17 09:22:00;;;;;;;16.00;3.70;;;19.60;99.90;;;;;;5096962;28;20044;-68
2022/05/17 09:24:30;;;;;;;10.60;3.50;;;19.50;99.90;;;;;;5095810;28;20465;-68
2022/05/17 09:27:09;;;;;;;11.35;3.75;;;19.70;99.90;;;;;;5096533;28;20054;-68
2022/05/17 09:29:45;;;;;;;10.13;3.45;;;19.60;99.90;;;;;;5096602;28;20036;-67
2022/05/17 09:32:12;;;;;;;13.00;3.72;;;19.60;99.90;;;;;;5096632;28;20093;-67
2022/05/17 09:34:39;;;;;;;12.07;3.67;;;19.60;99.90;;;;;;5096625;28;20055;-68
2022/05/17 09:37:13;;;;;;;13.50;3.78;;;19.70;99.90;;;;;;5096471;28;20070;-68
2022/05/17 09:39:39;;;;;;;;;;;19.70;99.90;;;;;;5095909;28;20040;-68
2022/05/17 09:42:07;;;;;;;11.40;3.97;;;19.90;99.90;;;;;;5096453;28;20329;-68
2022/05/17 09:44:40;;;;;;;12.00;4.03;;;19.90;99.90;;;;;;5096055;28;20040;-68
2022/05/17 09:47:06;;;;;;;17.17;4.88;;;20.00;99.90;;;;;;5096321;28;20035;-67
2022/05/17 09:52:35;;;;;;;11.80;3.50;;;20.20;99.90;;;;;;5096226;28;20142;-68
2022/05/17 09:55:09;;;;;;;11.05;3.88;;;20.30;99.90;;;;;;5095152;28;20043;-68
2022/05/17 09:57:36;;;;;;;14.30;4.20;;;20.40;99.90;;;;;;5078397;28;20105;-68
2022/05/17 10:00:16;;;;;;;10.98;3.75;;;20.50;99.90;;;;;;5095660;28;20081;-68
2022/05/17 10:02:54;;;;;;;10.05;3.72;;;20.40;99.90;;;;;;5091721;28;20078;-68
2022/05/17 10:05:43;;;;;;;10.00;2.92;;;20.50;99.90;;;;;;5075580;28;20049;-68
2022/05/17 10:08:14;;;;;;;13.70;3.50;;;20.60;99.90;;;;;;5075471;28;20048;-68
2022/05/17 10:11:00;;;;;;;14.07;3.90;;;20.60;99.90;;;;;;5075247;28;20056;-67
2022/05/17 10:13:35;;;;;;;11.63;3.63;;;20.60;99.90;;;;;;5075610;28;20112;-68
2022/05/17 10:16:07;;;;;;;13.60;4.00;;;20.70;99.90;;;;;;5075327;28;20040;-68
2022/05/17 10:18:42;;;;;;;12.68;2.95;;;20.70;99.90;;;;;;5088998;28;20075;-68
2022/05/17 10:21:32;;;;;;;8.40;3.45;;;20.70;99.90;;;;;;5095277;28;20412;-67
2022/05/17 10:24:27;;;;;;;13.15;3.45;;;20.80;99.90;;;;;;5095591;28;20131;-68
2022/05/17 10:27:07;;;;;;;7.32;2.90;;;21.00;99.90;;;;;;5095593;28;20050;-68
2022/05/17 10:29:38;;;;;;;14.38;3.28;;;21.00;99.90;;;;;;5095630;28;20093;-68
2022/05/17 10:32:22;;;;;;;9.15;3.33;;;21.10;99.90;;;;;;5094512;28;20039;-68
2022/05/17 10:34:51;;;;;;;12.57;3.53;;;21.20;99.90;;;;;;5095775;28;20420;-68
2022/05/17 10:37:25;;;;;;;10.15;3.20;;;21.30;99.90;;;;;;5095303;28;20048;-68
2022/05/17 10:40:01;;;;;;;11.88;3.60;;;21.30;99.90;;;;;;5095162;28;20040;-68
2022/05/17 10:42:28;;;;;;;8.60;3.13;;;21.60;99.90;;;;;;5095206;28;20040;-68
2022/05/17 10:44:56;;;;;;;10.90;3.03;;;21.50;99.90;;;;;;5095270;28;20117;-68
2022/05/17 10:47:43;;;;;;;11.88;3.47;;;21.60;99.90;;;;;;5076155;28;20110;-68
2022/05/17 10:50:21;;;;;;;8.65;2.97;;;21.70;99.90;;;;;;5094182;28;20047;-68
2022/05/17 10:53:26;;;;;;;9.13;3.72;;;21.90;99.90;;;;;;5095110;28;20040;-68
2022/05/17 10:56:22;;;;;;;13.77;3.92;;;21.90;99.90;;;;;;5095191;28;20040;-68
2022/05/17 10:59:01;;;;;;;8.60;2.92;;;22.10;99.90;;;;;;5078593;28;20450;-68
2022/05/17 11:01:35;;;;;;;7.95;2.97;;;22.00;99.90;;;;;;5094186;28;20076;-68
2022/05/17 11:04:15;;;;;;;;;;;22.30;99.90;;;;;;5095597;28;20044;-68
2022/05/17 11:07:01;;;;;;;11.77;3.67;;;22.00;99.60;;;;;;5094620;28;19980;-68
2022/05/17 11:09:37;;;;;;;10.13;2.78;;;22.20;99.90;;;;;;5095039;28;20137;-68
2022/05/17 11:12:09;;;;;;;7.35;2.75;;;22.40;99.90;;;;;;5094968;28;20125;-68
2022/05/17 11:14:56;;;;;;;7.28;2.72;;;22.50;99.40;;;;;;5094109;28;20377;-68
2022/05/17 11:17:36;;;;;;;9.75;3.25;;;22.80;99.30;;;;;;5093474;28;20349;-68
2022/05/17 11:20:04;;;;;;;11.15;3.03;;;22.80;99.20;;;;;;5094876;28;20048;-69
2022/05/17 11:22:58;;;;;;;10.15;3.08;;;22.80;97.30;;;;;;5095454;28;20044;-69
2022/05/17 11:26:05;;;;;;;10.55;3.67;;;22.80;98.20;;;;;;5030538;28;20350;-69
2022/05/17 11:28:46;;;;;;;8.48;3.20;;;23.20;99.10;;;;;;5098981;28;20086;-69
2022/05/17 11:31:17;;;;;;;10.70;3.20;;;23.20;95.60;;;;;;5098119;28;20101;-69
2022/05/17 11:33:43;;;;;;;8.82;2.60;;;23.20;96.70;;;;;;5099123;28;20055;-69
2022/05/17 11:36:32;;;;;;;7.22;2.42;;;23.40;96.70;;;;;;5098709;28;20476;-69
2022/05/17 11:38:59;;;;;;;8.23;2.92;;;23.50;95.40;;;;;;5098360;28;20377;-69
2022/05/17 11:41:48;;;;;;;7.53;2.72;;;23.60;95.30;;;;;;5098653;28;20048;-66
2022/05/17 11:44:26;;;;;;;7.07;2.47;;;23.80;92.00;;;;;;5097587;28;20048;-67
2022/05/17 11:46:58;;;;;;;8.63;2.83;;;24.00;93.90;;;;;;5098533;28;20059;-66
2022/05/17 11:49:28;;;;;;;7.45;2.33;;;23.80;92.10;;;;;;5098778;28;20048;-67
2022/05/17 11:51:56;;;;;;;8.60;2.38;;;24.00;92.50;;;;;;5098647;28;20040;-67
2022/05/17 11:54:42;;;;;;;8.45;2.75;;;24.60;96.30;;;;;;5098358;28;20376;-67
2022/05/17 11:57:32;;;;;;;9.40;3.03;;;24.70;85.80;;;;;;5098255;28;20037;-66
2022/05/17 12:00:35;;;;;;;7.25;2.60;;;24.40;85.50;;;;;;5041008;28;20470;-67
2022/05/17 12:03:04;;;;;;;6.50;2.60;;;24.50;89.10;;;;;;5043915;28;20442;-67
2022/05/17 12:05:38;;;;;;;5.65;2.17;;;24.80;88.80;;;;;;5077821;28;20045;-67
2022/05/17 12:08:35;;;;;;;8.77;2.97;;;25.20;86.10;;;;;;5077936;28;20057;-67
2022/05/17 12:11:11;;;;;;;8.23;2.50;;;25.40;86.70;;;;;;5078057;28;20044;-67
2022/05/17 12:13:55;;;;;;;6.45;2.88;;;25.30;84.70;;;;;;5093778;28;20070;-67
2022/05/17 12:16:29;;;;;;;9.60;3.20;;;25.20;83.80;;;;;;5098050;28;20040;-67
2022/05/17 12:19:01;;;;;;;8.13;3.35;;;25.20;86.30;;;;;;5097851;28;20044;-67
2022/05/17 12:21:58;;;;;;;7.93;2.90;;;25.40;87.20;;;;;;5098080;28;20047;-67
2022/05/17 12:24:52;;;;;;;8.48;2.65;;;25.70;85.60;;;;;;5097862;28;20339;-67
2022/05/17 12:27:24;;;;;;;6.20;2.95;;;26.20;84.90;;;;;;5086398;28;20059;-67
2022/05/17 12:33:16;;;;;;;12.07;3.78;;;26.10;81.30;;;;;;5097706;28;20059;-67
2022/05/17 12:35:42;;;;;;;7.85;3.40;;;26.00;83.40;;;;;;5079292;28;20048;-67
2022/05/17 12:43:02;;;;;;;6.47;2.75;;;26.30;83.50;;;;;;5097962;28;20051;-67
2022/05/17 12:43:44;;;;;;;7.57;2.63;;;27.60;80.40;;;;;;5077259;28;20048;-67
2022/05/17 12:46:24;;;;;;;6.93;3.45;;;27.80;77.60;;;;;;5077264;28;20044;-67
2022/05/17 12:48:51;;;;;;;7.20;2.60;;;28.60;75.70;;;;;;5077066;28;20061;-68
2022/05/17 12:51:19;;;;;;;6.88;3.35;;;27.90;70.90;;;;;;5077028;28;20040;-67
2022/05/17 12:53:51;;;;;;;7.05;2.70;;;27.90;70.50;;;;;;5076848;28;20516;-67
2022/05/17 12:56:19;;;;;;;7.47;3.10;;;27.90;69.30;;;;;;5079359;28;20492;-67
2022/05/17 12:59:03;;;;;;;6.60;2.95;;;27.70;67.60;;;;;;5096619;28;20104;-67
2022/05/17 13:01:51;;;;;;;7.97;2.88;;;27.90;68.10;;;;;;5097177;28;20036;-68
2022/05/17 13:04:17;;;;;;;8.80;2.72;;;28.30;69.60;;;;;;5097201;28;20469;-67
2022/05/17 13:06:46;;;;;;;9.75;3.50;;;27.80;70.30;;;;;;5096424;28;20385;-67